Millis, Massachusetts
Current Conditions -  °F | °C
As of 11:23 AM on Monday 24 Nov 2014 (Local Time) from KOWD Reporting Station
Light Rain Light Rain  
Wind Chill: 64°   Ceiling: 1400
Heat Index: 64°   Visibility: 8mi
Dew Point: 61°   Wind: 17mph
Humidity: 90%   Direction: 190°S
Pressure: 29.67"   Gusts: 31mph
Location:  42.17°N, 71.36°W
Report Text: KOWD 241623Z 19015G27KT 8SM -RA BKN014 BKN028 OVC035 18/16 A2967 RMK AO2 PK WND 18028/1613 P0001 T01780161
Loading
Personal Weather Stations






























Interactive Weather Map New forecast layout! Learn more

10-Day Weather Forecast

Advertisements
Track Severe Weather on mobile